Etusivu
METAR-TAF:

METAR-TAF

Lentoasemat :

Emmen, Sveitsi

Leveyspiiri: 47-05-32N, Pituuspiiri: 8-18-16E, korkeus merenpinnasta: 426 m

Tämänhetkinen sää

Tämä raportti tehtiin 12 minuuttia sitten, kello 18.50 UTC
Tuuli 2 kn eri suunnista
Lämpötila 18°C
Kosteus 73%
Ilmanpaine 1021 hPa
Näkyvyys 10 km tai enemmän
Hajanaisia pilviä 6800 ft:n korkeudessa
Pilvistä 8700 ft:n korkeudessa

METAR: LSME 031850Z AUTO VRB02KT 9999NDV SCT068 OVC087 18/13 Q1021 RMK

Aika: 21:02 (19:02 UTC)


TAF: puuttuu

Säähavainnot ja -ennusteet yli 4000 lentoasemalta (METAR- ja TAF-raportit).

Käytössä olevat sääasemat on merkitty karttaan keltaisilla ja punaisilla pisteillä.

Aseta hiiri pisteen päälle nähdäksesi sääaseman nimen.

Klikkaa sitten nähdäksesi säähavainnot ja -ennusteet.

Kartan vaihtaminen: klikkaa mustalla rastilla varustettuja vihreitä pisteitä, niin voit zoomata sisään; viivalla varustettua vihreää pistettä, niin voit zoomata ulos tai vihreitä nuolia, niin pääset viereisille kartoille.


METAR-TAF: